map of SIN home
SIN - Airport
Location
City:  Singapore, Singapore
Name:Changi International Airport
ICAO:WSSS
IATA:SIN

Details
Type:Airport (Aerodrome, Airfield)
Use:Public/Civil, International (customs port of entry)
Latitude:121'33"N (1.359211)
Longitude:10359'22"E (103.989333)
Elevation:22 ft (7 m)
Variation:0.23E (WMM2015 magnetic declination)
-0.00 annual change
Runways:3
Longest:13123 × 197 ft (4000 × 60 m), paved

Time
Time Zone:UTC+8
Local Time:

Weather
METAR:WSSS 221400Z 08010KT 1000 R02L/1000D R02C/1500D +TSRA FEW006 SCT012TCU FEW015CB BKN140 24/24 Q1013 BECMG FM1420 TL1440 3000 TSRA BECMG FM1450 TL1510 6000 NSW
TAF:WSSS 220500Z 2206/2312 03009KT 9999 FEW018CB SCT020
TEMPO 2206/2210 2500 TSRA SCT012CB BKN015
TEMPO 2304/2310 2500 TSRA SCT012CB BKN015

Related Locations
Nearby:
Farthest:TPN: 12383 mi / 19929 km
Tiputini, D, EC

Find:

   beyond  
but within

Other Information
Maps:
NOTAMs:
Links:
Sources:

  
flag of Singapore   

Sectional Chart

Flight Planning
at skyvector.com

Satellite Image

Google Maps Satellite view

 

Copyright © 2004-2017 Karl L. Swartz. All rights reserved.
The Great Circle Mapper name and logo are trademarks of the Great Circle Mapper.
All other trademarks mentioned herein belong to their respective owners.
Please see credits for attibutions and further copyright information.

  Follow gcmap on Facebook Follow gcmap on Twitter Follow gcmap on Google+ GCmap on LinkedIn

hCard Microformat

Geo Microformat